Time;durP1;ratioP1;P1;durP2;ratioP2;P2;SDS_P1;SDS_P2;PMS_P1;PMS_P2;Temp;Humidity;BMP_temperature;BMP_pressure;BME280_temperature;BME280_humidity;BME280_pressure;Samples;Min_cycle;Max_cycle;Signal;HPM_P1;HPM_P2
2022/03/26 00:01:10;;;;;;;29.33;22.37;;;10.60;42.40;;;;;;6218675;28;20491;-61
2022/03/26 00:04:13;;;;;;;25.20;20.87;;;10.50;41.90;;;;;;6206441;28;20473;-61
2022/03/26 00:07:16;;;;;;;23.13;19.00;;;10.50;42.30;;;;;;6203053;28;20527;-63
2022/03/26 00:10:19;;;;;;;26.93;20.00;;;10.40;42.90;;;;;;6203249;28;20820;-62
2022/03/26 00:13:23;;;;;;;26.93;19.03;;;10.30;42.80;;;;;;6203218;28;20476;-62
2022/03/26 00:16:26;;;;;;;27.83;19.33;;;10.30;43.00;;;;;;6203911;28;20473;-60
2022/03/26 00:19:30;;;;;;;22.70;18.47;;;10.20;43.00;;;;;;6204912;28;20469;-60
2022/03/26 00:22:33;;;;;;;24.07;18.43;;;10.20;43.10;;;;;;6203782;28;20508;-61
2022/03/26 00:25:37;;;;;;;23.50;19.20;;;10.10;43.10;;;;;;6203484;28;20473;-61
2022/03/26 00:28:41;;;;;;;24.47;18.37;;;10.10;43.10;;;;;;6203553;28;20487;-61
2022/03/26 00:31:44;;;;;;;29.13;19.37;;;10.00;42.90;;;;;;6211280;28;20465;-60
2022/03/26 00:34:48;;;;;;;24.70;19.70;;;10.00;43.20;;;;;;6203324;28;20476;-60
2022/03/26 00:37:53;;;;;;;25.23;18.60;;;10.00;43.50;;;;;;6213664;28;20801;-60
2022/03/26 00:40:56;;;;;;;27.50;20.57;;;10.00;43.40;;;;;;6198376;28;20503;-60
2022/03/26 00:44:01;;;;;;;25.70;19.50;;;9.90;44.30;;;;;;6203137;28;20492;-61
2022/03/26 00:47:04;;;;;;;23.07;18.53;;;9.80;44.20;;;;;;6202237;28;20491;-61
2022/03/26 00:50:10;;;;;;;29.73;20.50;;;9.80;44.40;;;;;;6202801;28;20481;-61
2022/03/26 00:53:13;;;;;;;21.33;18.80;;;9.70;44.40;;;;;;6202671;28;20489;-61
2022/03/26 00:56:16;;;;;;;26.43;20.87;;;9.70;44.40;;;;;;6202729;28;20816;-60
2022/03/26 00:59:20;;;;;;;23.90;18.33;;;9.70;44.50;;;;;;6202439;28;20846;-61
2022/03/26 01:02:24;;;;;;;26.97;18.70;;;9.70;44.70;;;;;;6202257;28;20485;-62
2022/03/26 01:05:27;;;;;;;24.33;19.10;;;9.60;45.60;;;;;;6202621;28;20477;-61
2022/03/26 01:08:31;;;;;;;23.90;18.13;;;9.60;45.00;;;;;;6202551;28;20469;-61
2022/03/26 01:11:34;;;;;;;27.00;19.40;;;9.50;44.90;;;;;;6202246;28;20476;-61
2022/03/26 01:14:39;;;;;;;29.80;19.73;;;9.40;45.10;;;;;;6201927;28;20551;-61
2022/03/26 01:17:42;;;;;;;23.63;17.23;;;9.40;45.10;;;;;;6202193;28;20476;-61
2022/03/26 01:20:45;;;;;;;25.80;18.70;;;9.30;45.40;;;;;;6201900;28;20480;-61
2022/03/26 01:23:49;;;;;;;31.67;20.00;;;9.20;45.70;;;;;;6201807;28;20496;-61
2022/03/26 01:26:52;;;;;;;22.27;18.70;;;9.20;45.70;;;;;;6202031;28;20472;-61
2022/03/26 01:29:57;;;;;;;23.50;17.93;;;9.20;45.90;;;;;;6201675;28;20850;-61
2022/03/26 01:33:00;;;;;;;25.40;18.77;;;9.20;46.50;;;;;;6201630;28;20512;-61
2022/03/26 01:36:03;;;;;;;22.97;17.70;;;9.20;45.90;;;;;;6201853;28;20477;-61
2022/03/26 01:39:06;;;;;;;25.33;18.53;;;9.20;45.80;;;;;;6201983;28;20472;-61
2022/03/26 01:42:10;;;;;;;23.53;18.63;;;9.10;46.00;;;;;;6201699;28;20492;-61
2022/03/26 01:45:16;;;;;;;25.60;18.53;;;9.10;46.00;;;;;;6201571;28;20781;-61
2022/03/26 01:48:19;;;;;;;28.50;19.33;;;9.00;46.00;;;;;;6201166;28;20969;-61
2022/03/26 01:51:23;;;;;;;23.43;18.23;;;9.00;46.30;;;;;;6201555;28;20547;-61
2022/03/26 01:54:27;;;;;;;22.10;18.37;;;8.90;46.10;;;;;;6201138;28;20496;-61
2022/03/26 01:57:31;;;;;;;25.93;17.53;;;8.90;46.10;;;;;;6200814;28;20477;-61
2022/03/26 02:00:36;;;;;;;24.63;18.07;;;8.90;46.00;;;;;;6201813;28;20477;-61
2022/03/26 02:03:39;;;;;;;29.93;19.73;;;8.90;46.10;;;;;;6201588;28;20873;-61
2022/03/26 02:06:42;;;;;;;21.37;18.57;;;8.90;46.20;;;;;;6201657;28;20453;-61
2022/03/26 02:09:45;;;;;;;22.37;17.60;;;8.90;46.20;;;;;;6201635;28;20504;-61
2022/03/26 02:12:49;;;;;;;26.10;17.80;;;8.80;46.20;;;;;;6201501;28;20476;-61
2022/03/26 02:15:53;;;;;;;21.90;16.73;;;8.80;46.40;;;;;;6201551;28;20448;-61
2022/03/26 02:18:57;;;;;;;24.83;18.60;;;8.70;46.50;;;;;;6201525;28;20441;-61
2022/03/26 02:22:02;;;;;;;24.43;18.63;;;8.70;46.70;;;;;;6201008;28;20477;-61
2022/03/26 02:25:06;;;;;;;23.43;17.57;;;8.70;46.90;;;;;;6201424;28;20540;-61
2022/03/26 02:28:10;;;;;;;26.40;19.30;;;8.70;46.80;;;;;;6201432;28;20480;-61
2022/03/26 02:31:14;;;;;;;23.90;17.03;;;8.70;46.80;;;;;;6201209;28;20480;-61
2022/03/26 02:34:17;;;;;;;23.13;17.50;;;8.60;46.80;;;;;;6201184;28;20473;-61
2022/03/26 02:37:22;;;;;;;25.27;19.07;;;8.60;46.90;;;;;;6201286;28;20473;-61
2022/03/26 02:40:25;;;;;;;22.47;18.20;;;8.50;47.00;;;;;;6200907;28;20469;-61
2022/03/26 02:43:28;;;;;;;24.00;17.67;;;8.50;47.50;;;;;;6200768;28;20947;-61
2022/03/26 02:46:32;;;;;;;23.40;19.43;;;8.50;47.60;;;;;;6200609;28;20481;-61
2022/03/26 02:49:35;;;;;;;24.47;18.10;;;8.40;47.60;;;;;;6191917;28;20489;-61
2022/03/26 02:52:39;;;;;;;23.47;18.37;;;8.40;47.70;;;;;;6200925;28;20492;-61
2022/03/26 02:55:43;;;;;;;25.83;18.47;;;8.40;47.60;;;;;;6200367;28;20845;-61
2022/03/26 02:58:46;;;;;;;24.47;18.80;;;8.40;47.90;;;;;;6200559;28;20821;-61
2022/03/26 03:01:49;;;;;;;22.23;17.40;;;8.30;47.80;;;;;;6200902;28;20630;-61
2022/03/26 03:04:53;;;;;;;23.53;18.57;;;8.20;48.10;;;;;;6200446;28;20496;-61
2022/03/26 03:07:57;;;;;;;22.43;17.10;;;8.30;48.30;;;;;;6204343;28;20472;-61
2022/03/26 03:11:00;;;;;;;22.27;17.47;;;8.30;48.00;;;;;;6212041;28;20486;-61
2022/03/26 03:14:04;;;;;;;23.10;17.77;;;8.20;47.90;;;;;;6221200;28;20494;-61
2022/03/26 03:17:07;;;;;;;21.47;16.83;;;8.10;48.00;;;;;;6216291;28;20472;-61
2022/03/26 03:20:11;;;;;;;24.20;18.73;;;8.10;48.20;;;;;;6220237;28;20491;-60
2022/03/26 03:23:16;;;;;;;22.70;17.37;;;8.00;48.40;;;;;;6212600;28;20537;-60
2022/03/26 03:26:19;;;;;;;23.83;16.70;;;8.00;48.40;;;;;;6213431;28;20940;-60
2022/03/26 03:29:22;;;;;;;24.93;18.30;;;8.00;48.50;;;;;;6214982;28;20793;-60
2022/03/26 03:32:25;;;;;;;23.50;17.37;;;8.00;48.50;;;;;;6214868;28;20473;-61
2022/03/26 03:35:28;;;;;;;24.33;17.90;;;7.90;48.50;;;;;;6214084;28;20475;-61
2022/03/26 03:38:33;;;;;;;25.83;18.00;;;7.90;49.20;;;;;;6229083;28;20476;-61
2022/03/26 03:41:36;;;;;;;22.57;17.60;;;7.90;48.60;;;;;;6223319;28;20460;-61
2022/03/26 03:44:39;;;;;;;24.07;17.37;;;7.90;48.80;;;;;;6229868;28;20481;-62
2022/03/26 03:47:42;;;;;;;24.63;18.10;;;7.80;48.80;;;;;;6226815;28;20545;-62
2022/03/26 03:50:47;;;;;;;22.60;17.43;;;7.70;48.90;;;;;;6213030;28;20481;-61
2022/03/26 03:53:51;;;;;;;23.27;18.27;;;7.70;49.00;;;;;;6200345;28;20492;-61
2022/03/26 03:56:55;;;;;;;26.30;18.50;;;7.80;49.20;;;;;;6200223;28;20477;-61
2022/03/26 03:59:58;;;;;;;23.83;17.27;;;7.70;49.20;;;;;;6205956;28;20488;-61
2022/03/26 04:03:01;;;;;;;22.70;18.90;;;7.70;49.30;;;;;;6214864;28;20503;-61
2022/03/26 04:06:05;;;;;;;22.37;17.30;;;7.60;49.20;;;;;;6217139;28;20539;-61
2022/03/26 04:09:10;;;;;;;26.20;18.40;;;7.70;49.50;;;;;;6217489;28;20481;-61
2022/03/26 04:12:13;;;;;;;26.17;19.10;;;7.60;49.40;;;;;;6203854;28;20529;-61
2022/03/26 04:15:16;;;;;;;23.90;17.97;;;7.60;49.50;;;;;;6204148;28;20484;-61
2022/03/26 04:18:19;;;;;;;21.80;17.73;;;7.50;49.60;;;;;;6203610;28;20473;-61
2022/03/26 04:21:22;;;;;;;24.23;18.40;;;7.50;49.80;;;;;;6203332;28;20484;-61
2022/03/26 04:24:27;;;;;;;27.30;17.90;;;7.50;50.00;;;;;;6203392;28;20516;-61
2022/03/26 04:27:30;;;;;;;23.00;17.10;;;7.50;50.00;;;;;;6203933;28;20473;-60
2022/03/26 04:30:33;;;;;;;25.07;18.70;;;7.40;50.00;;;;;;6203469;28;20495;-60
2022/03/26 04:33:36;;;;;;;22.53;17.70;;;7.40;50.10;;;;;;6202981;28;20484;-60
2022/03/26 04:36:39;;;;;;;22.57;17.90;;;7.30;50.80;;;;;;6203370;28;20559;-60
2022/03/26 04:39:44;;;;;;;29.67;19.03;;;7.30;50.40;;;;;;6203572;28;20456;-61
2022/03/26 04:42:47;;;;;;;24.13;17.80;;;7.30;50.70;;;;;;6203323;28;20465;-61
2022/03/26 04:45:50;;;;;;;25.70;18.60;;;7.20;50.60;;;;;;6202875;28;20783;-61
2022/03/26 04:48:54;;;;;;;31.23;18.10;;;7.20;50.70;;;;;;6203106;28;20459;-61
2022/03/26 04:51:57;;;;;;;24.70;18.23;;;7.20;50.70;;;;;;6202995;28;20485;-61
2022/03/26 04:55:02;;;;;;;23.60;17.50;;;7.20;50.90;;;;;;6203208;28;20464;-61
2022/03/26 04:58:05;;;;;;;25.00;18.97;;;7.20;51.00;;;;;;6193750;28;20515;-61
2022/03/26 05:01:08;;;;;;;23.40;17.97;;;7.10;51.60;;;;;;6202880;28;20542;-61
2022/03/26 05:04:11;;;;;;;21.10;17.10;;;7.20;51.10;;;;;;6202716;28;20477;-62
2022/03/26 05:10:33;;;;;;;25.40;18.10;;;7.20;50.80;;;;;;6201658;28;20835;-61
2022/03/26 05:13:36;;;;;;;23.43;16.57;;;7.20;50.80;;;;;;6202473;28;20488;-60
2022/03/26 05:16:39;;;;;;;22.27;18.07;;;7.30;50.80;;;;;;6202211;28;20492;-60
2022/03/26 05:19:42;;;;;;;22.07;18.00;;;7.30;50.80;;;;;;6202344;28;20558;-60
2022/03/26 05:22:46;;;;;;;23.97;17.77;;;7.30;50.90;;;;;;6201984;28;20776;-61
2022/03/26 05:25:51;;;;;;;22.70;16.93;;;7.40;50.80;;;;;;6202146;28;20484;-61
2022/03/26 05:28:54;;;;;;;23.77;18.20;;;7.40;50.60;;;;;;6202354;28;20484;-62
2022/03/26 05:31:59;;;;;;;27.60;19.60;;;7.50;50.70;;;;;;6201894;28;20472;-61
2022/03/26 05:35:03;;;;;;;21.37;16.60;;;7.50;51.20;;;;;;6202282;28;20535;-60
2022/03/26 05:38:06;;;;;;;22.87;17.27;;;7.60;50.60;;;;;;6202113;28;20826;-60
2022/03/26 05:41:11;;;;;;;25.93;19.43;;;7.70;50.50;;;;;;6202045;28;20483;-61
2022/03/26 05:44:14;;;;;;;23.53;18.10;;;7.80;50.20;;;;;;6201773;28;20526;-61
2022/03/26 05:47:17;;;;;;;24.40;18.77;;;7.80;50.70;;;;;;6201767;28;20535;-60
2022/03/26 05:50:20;;;;;;;24.53;17.77;;;7.90;49.90;;;;;;6201389;28;20513;-59
2022/03/26 05:53:23;;;;;;;23.33;17.00;;;7.90;49.70;;;;;;6201601;28;20976;-61
2022/03/26 05:56:28;;;;;;;27.27;18.97;;;8.00;49.50;;;;;;6201417;28;20485;-61
2022/03/26 05:59:31;;;;;;;24.47;17.17;;;8.10;49.40;;;;;;6201619;28;21267;-60
2022/03/26 06:02:34;;;;;;;22.20;18.00;;;8.20;49.90;;;;;;6197513;28;20469;-59
2022/03/26 06:05:38;;;;;;;27.50;17.70;;;8.20;49.10;;;;;;6201886;28;20560;-60
2022/03/26 06:08:41;;;;;;;21.07;17.90;;;8.30;48.90;;;;;;6201680;28;20484;-60
2022/03/26 06:11:46;;;;;;;21.97;16.90;;;8.40;48.70;;;;;;6201079;28;20492;-61
2022/03/26 06:14:49;;;;;;;22.90;17.50;;;8.50;48.50;;;;;;6201115;28;20468;-60
2022/03/26 06:17:52;;;;;;;27.53;17.43;;;8.60;48.40;;;;;;6201048;28;20476;-61
2022/03/26 06:20:56;;;;;;;24.10;19.30;;;8.70;48.20;;;;;;6201526;28;20483;-61
2022/03/26 06:24:00;;;;;;;22.03;17.93;;;8.80;48.00;;;;;;6200940;28;20507;-61
2022/03/26 06:27:06;;;;;;;27.47;18.37;;;8.90;47.70;;;;;;6201271;28;20473;-61
2022/03/26 06:30:11;;;;;;;26.83;18.20;;;9.10;47.70;;;;;;6201046;28;20477;-61
2022/03/26 06:33:16;;;;;;;22.80;17.50;;;9.30;47.40;;;;;;6201116;28;20485;-61
2022/03/26 06:36:19;;;;;;;25.30;17.77;;;9.50;47.10;;;;;;6200845;28;20621;-61
2022/03/26 06:39:22;;;;;;;22.97;18.50;;;9.80;46.50;;;;;;6201009;28;20477;-61
2022/03/26 06:42:26;;;;;;;21.57;16.93;;;10.30;45.10;;;;;;6200813;28;20528;-60
2022/03/26 06:45:29;;;;;;;23.10;17.60;;;11.50;44.10;;;;;;6206115;28;20523;-61
2022/03/26 06:48:33;;;;;;;25.83;18.90;;;13.10;41.70;;;;;;6206290;28;20477;-62
2022/03/26 06:51:36;;;;;;;25.90;17.80;;;14.70;39.20;;;;;;6205542;28;20953;-60
2022/03/26 06:54:39;;;;;;;23.10;20.63;;;16.10;36.40;;;;;;6205746;28;20484;-60
2022/03/26 06:57:44;;;;;;;26.27;18.60;;;17.40;34.30;;;;;;6205884;28;20476;-61
2022/03/26 07:00:47;;;;;;;20.93;18.70;;;18.60;33.00;;;;;;6205561;28;20774;-62
2022/03/26 07:03:50;;;;;;;22.63;18.60;;;19.60;30.60;;;;;;6205008;28;20837;-61
2022/03/26 07:06:53;;;;;;;21.70;19.33;;;20.50;29.20;;;;;;6205168;28;20618;-61
2022/03/26 07:09:56;;;;;;;25.20;20.63;;;21.50;28.50;;;;;;6205624;28;20236;-61
2022/03/26 07:13:01;;;;;;;24.33;21.10;;;22.20;27.30;;;;;;6205294;28;20643;-61
2022/03/26 07:16:04;;;;;;;21.97;19.77;;;23.10;26.70;;;;;;6204790;28;20646;-62
2022/03/26 07:19:07;;;;;;;22.50;20.00;;;23.90;25.90;;;;;;6205194;28;20233;-62
2022/03/26 07:22:10;;;;;;;25.27;21.73;;;24.80;25.60;;;;;;6205041;28;20244;-61
2022/03/26 07:25:13;;;;;;;23.80;21.33;;;25.40;24.20;;;;;;6205913;28;20673;-61
2022/03/26 07:28:18;;;;;;;27.60;22.80;;;26.00;23.70;;;;;;6205546;28;20229;-61
2022/03/26 07:31:21;;;;;;;24.93;22.43;;;26.50;23.10;;;;;;6205246;28;20229;-62
2022/03/26 07:34:26;;;;;;;24.80;22.40;;;27.30;22.30;;;;;;6205044;28;20307;-62
2022/03/26 07:37:29;;;;;;;24.57;22.27;;;28.20;21.60;;;;;;6205602;28;20228;-62
2022/03/26 07:40:33;;;;;;;25.00;22.53;;;28.70;21.10;;;;;;6205118;28;20225;-63
2022/03/26 07:43:37;;;;;;;25.30;22.80;;;29.50;20.50;;;;;;6204250;28;20680;-63
2022/03/26 07:46:40;;;;;;;25.67;23.27;;;30.10;19.70;;;;;;6204246;28;20241;-63
2022/03/26 07:49:44;;;;;;;26.20;23.77;;;30.60;19.10;;;;;;6204397;28;20380;-63
2022/03/26 07:52:47;;;;;;;24.43;22.13;;;31.00;18.70;;;;;;6204382;28;20229;-62
2022/03/26 07:55:50;;;;;;;26.40;23.85;;;31.60;18.40;;;;;;6202996;28;20854;-63
2022/03/26 07:58:55;;;;;;;25.50;23.20;;;32.20;18.00;;;;;;6204330;28;20237;-63
2022/03/26 08:01:58;;;;;;;25.13;22.80;;;32.90;17.40;;;;;;6206401;28;20248;-63
2022/03/26 08:05:01;;;;;;;26.88;24.27;;;33.60;17.20;;;;;;6215029;28;20236;-62
2022/03/26 08:08:04;;;;;;;26.45;24.05;;;34.20;16.60;;;;;;6211141;28;20594;-62
2022/03/26 08:11:07;;;;;;;25.80;23.50;;;34.90;16.10;;;;;;6194875;28;20244;-62
2022/03/26 08:14:12;;;;;;;27.70;25.27;;;35.20;15.70;;;;;;6203552;28;20562;-62
2022/03/26 08:17:15;;;;;;;26.73;24.20;;;35.50;15.50;;;;;;6205569;28;20244;-62
2022/03/26 08:20:18;;;;;;;24.90;22.73;;;35.90;15.20;;;;;;6212030;28;20229;-62
2022/03/26 08:23:21;;;;;;;29.02;26.25;;;36.50;14.80;;;;;;6203108;28;20562;-62
2022/03/26 08:26:26;;;;;;;25.10;22.77;;;37.20;14.30;;;;;;6203504;28;20237;-62
2022/03/26 08:29:31;;;;;;;27.20;24.75;;;38.00;14.00;;;;;;6203100;28;20225;-64
2022/03/26 08:32:34;;;;;;;26.80;24.52;;;38.40;13.50;;;;;;6203442;28;20237;-64
2022/03/26 08:35:39;;;;;;;27.15;24.85;;;38.90;13.40;;;;;;6203368;28;20248;-64
2022/03/26 08:38:44;;;;;;;27.48;25.10;;;39.70;13.00;;;;;;6203241;28;20229;-63
2022/03/26 08:41:47;;;;;;;26.10;23.73;;;40.10;12.40;;;;;;6202901;28;20233;-63
2022/03/26 08:44:51;;;;;;;28.05;25.50;;;40.40;12.20;;;;;;6208202;28;20229;-63
2022/03/26 08:47:55;;;;;;;27.38;25.02;;;41.00;12.10;;;;;;6202938;28;20256;-65
2022/03/26 08:50:58;;;;;;;27.23;24.92;;;41.90;11.70;;;;;;6202944;28;20229;-64
2022/03/26 08:54:01;;;;;;;25.42;23.20;;;42.40;11.10;;;;;;6224929;28;20267;-64
2022/03/26 08:57:05;;;;;;;27.55;25.17;;;42.90;11.10;;;;;;6218426;28;20240;-65
2022/03/26 09:00:11;;;;;;;27.92;25.65;;;43.20;10.70;;;;;;6223756;28;20834;-63
2022/03/26 09:03:14;;;;;;;28.48;25.92;;;43.60;10.40;;;;;;6216843;28;20228;-63
2022/03/26 09:06:18;;;;;;;27.25;24.95;;;44.30;10.10;;;;;;6215149;28;20299;-63
2022/03/26 09:09:21;;;;;;;28.05;25.60;;;44.30;9.70;;;;;;6207578;28;20240;-63
2022/03/26 09:12:24;;;;;;;26.83;24.75;;;44.30;9.70;;;;;;6203035;28;20240;-63
2022/03/26 09:15:29;;;;;;;26.88;24.40;;;44.50;10.00;;;;;;6200772;28;20225;-63
2022/03/26 09:18:33;;;;;;;26.10;24.08;;;45.10;9.50;;;;;;6202913;28;20264;-63
2022/03/26 09:21:36;;;;;;;27.08;24.65;;;45.50;9.30;;;;;;6202810;28;20237;-63
2022/03/26 09:24:39;;;;;;;27.60;25.20;;;45.60;9.10;;;;;;6202775;28;20229;-63
2022/03/26 09:27:43;;;;;;;27.35;25.15;;;45.60;9.00;;;;;;6202650;28;20244;-63
2022/03/26 09:30:47;;;;;;;26.85;24.83;;;46.30;9.20;;;;;;6202005;28;20209;-63
2022/03/26 09:33:50;;;;;;;27.10;24.73;;;47.10;8.60;;;;;;6202007;28;20659;-63
2022/03/26 09:36:54;;;;;;;27.63;25.13;;;47.10;8.10;;;;;;6202703;28;20275;-63
2022/03/26 09:39:57;;;;;;;27.65;25.55;;;47.60;8.00;;;;;;6202238;28;20209;-63
2022/03/26 09:43:00;;;;;;;29.05;26.70;;;47.50;8.30;;;;;;6202177;28;20221;-63
2022/03/26 09:46:06;;;;;;;27.33;25.23;;;48.00;8.20;;;;;;6201746;28;20225;-63
2022/03/26 09:49:10;;;;;;;25.73;23.73;;;46.20;8.30;;;;;;6201601;28;20229;-63
2022/03/26 09:52:14;;;;;;;27.75;25.50;;;46.10;8.10;;;;;;6201911;28;20351;-63
2022/03/26 09:55:21;;;;;;;27.80;25.50;;;45.70;8.00;;;;;;6201854;28;20235;-63
2022/03/26 09:58:25;;;;;;;25.45;23.42;;;46.00;7.60;;;;;;6201893;28;20248;-63
2022/03/26 10:01:29;;;;;;;26.30;24.30;;;46.30;7.80;;;;;;6201669;28;20236;-63
2022/03/26 10:04:38;;;;;;;26.52;24.10;;;46.60;7.70;;;;;;6201800;28;20244;-63
2022/03/26 10:07:42;;;;;;;26.00;24.00;;;46.40;7.50;;;;;;6202405;28;20229;-63
2022/03/26 10:10:46;;;;;;;25.90;23.60;;;46.50;7.50;;;;;;6202346;28;20229;-63
2022/03/26 10:13:50;;;;;;;26.42;24.40;;;45.80;7.50;;;;;;6202072;28;20233;-63
2022/03/26 10:16:54;;;;;;;25.85;23.63;;;46.10;7.80;;;;;;6202178;28;20239;-63
2022/03/26 10:19:59;;;;;;;27.50;25.08;;;46.10;7.50;;;;;;6192247;28;20240;-64
2022/03/26 10:23:02;;;;;;;25.73;23.63;;;45.70;7.70;;;;;;6201401;28;20259;-64
2022/03/26 10:26:11;;;;;;;28.27;25.80;;;45.20;7.80;;;;;;6201413;28;20237;-64
2022/03/26 10:29:14;;;;;;;27.60;25.40;;;42.80;8.40;;;;;;6201304;28;20244;-63
2022/03/26 10:32:41;;;;;;;30.23;27.77;;;41.80;9.00;;;;;;6201254;28;20316;-63
2022/03/26 10:35:53;;;;;;;29.75;27.15;;;39.00;9.80;;;;;;6201020;28;20229;-63
2022/03/26 10:38:56;;;;;;;30.30;27.52;;;36.10;11.20;;;;;;6201041;28;20233;-63
2022/03/26 10:41:59;;;;;;;28.33;25.55;;;34.80;11.60;;;;;;6201145;28;20609;-63
2022/03/26 10:45:02;;;;;;;29.83;27.10;;;34.10;12.00;;;;;;6201030;28;20543;-63
2022/03/26 10:48:10;;;;;;;28.50;25.65;;;33.50;12.30;;;;;;6201757;28;20233;-63
2022/03/26 10:51:15;;;;;;;27.70;24.98;;;31.80;13.50;;;;;;6206860;28;20231;-67
2022/03/26 10:54:19;;;;;;;28.65;25.65;;;31.10;13.80;;;;;;6200536;28;20233;-64
2022/03/26 10:57:24;;;;;;;27.65;24.85;;;29.70;14.30;;;;;;6200714;28;20546;-64
2022/03/26 11:00:27;;;;;;;27.42;24.73;;;29.00;14.80;;;;;;6202596;28;20225;-64
2022/03/26 11:03:35;;;;;;;26.47;23.93;;;28.60;14.80;;;;;;6200485;28;20667;-63
2022/03/26 11:06:40;;;;;;;25.93;23.53;;;28.10;15.10;;;;;;6200215;28;20229;-64
2022/03/26 11:09:43;;;;;;;28.03;24.40;;;28.00;15.40;;;;;;6224188;28;20243;-63
2022/03/26 11:12:48;;;;;;;27.70;24.90;;;28.20;15.50;;;;;;6224831;28;20247;-64
2022/03/26 11:15:57;;;;;;;28.00;23.57;;;28.00;15.50;;;;;;6224858;28;20221;-64
2022/03/26 11:19:15;;;;;;;27.60;24.77;;;28.20;15.50;;;;;;6224761;28;20193;-64
2022/03/26 11:22:34;;;;;;;27.33;24.70;;;28.20;15.70;;;;;;6215241;28;20248;-64
2022/03/26 11:25:49;;;;;;;28.27;25.57;;;28.30;15.70;;;;;;6224756;28;20228;-63
2022/03/26 11:29:09;;;;;;;28.00;25.30;;;27.60;15.70;;;;;;6224979;28;20236;-64
2022/03/26 11:32:20;;;;;;;27.63;24.93;;;26.80;16.50;;;;;;6228884;28;20627;-64
2022/03/26 11:35:25;;;;;;;28.10;25.30;;;26.70;16.80;;;;;;6228799;28;20236;-64
2022/03/26 11:38:29;;;;;;;28.63;25.90;;;26.90;16.50;;;;;;6228722;28;20243;-64
2022/03/26 11:41:34;;;;;;;29.03;26.10;;;27.20;16.50;;;;;;6228547;28;20681;-64
2022/03/26 11:44:43;;;;;;;26.87;24.20;;;27.60;16.10;;;;;;6228394;28;20243;-64
2022/03/26 11:51:19;;;;;;;27.37;24.80;;;27.30;16.60;;;;;;6228632;28;20229;-63
2022/03/26 11:54:22;;;;;;;25.30;22.90;;;27.40;16.50;;;;;;6221607;28;20229;-63
2022/03/26 11:57:27;;;;;;;27.60;25.07;;;27.50;16.30;;;;;;6228467;28;20228;-63
2022/03/26 12:00:30;;;;;;;28.27;25.43;;;27.30;16.40;;;;;;6227950;28;20282;-63
2022/03/26 12:03:43;;;;;;;25.07;22.57;;;26.50;16.90;;;;;;6227984;28;20232;-64
2022/03/26 12:06:51;;;;;;;27.27;24.60;;;26.40;17.10;;;;;;6228104;28;20224;-64
2022/03/26 12:10:11;;;;;;;24.53;22.30;;;26.50;17.20;;;;;;6228612;28;20185;-63
2022/03/26 12:13:21;;;;;;;26.57;23.97;;;26.70;17.30;;;;;;6227889;28;20229;-64
2022/03/26 12:16:54;;;;;;;28.73;25.93;;;26.80;17.10;;;;;;6227897;28;20236;-66
2022/03/26 12:20:18;;;;;;;28.40;25.70;;;26.50;17.30;;;;;;6227668;28;20235;-66
2022/03/26 12:23:26;;;;;;;26.17;23.67;;;26.60;17.20;;;;;;6227440;28;20241;-64
2022/03/26 12:26:29;;;;;;;27.67;24.77;;;26.70;17.20;;;;;;6221963;28;20236;-64
2022/03/26 12:29:32;;;;;;;25.77;23.03;;;26.80;17.00;;;;;;6188581;28;20288;-66
2022/03/26 12:32:36;;;;;;;25.83;23.30;;;26.70;17.60;;;;;;6179552;28;20234;-65
2022/03/26 12:35:39;;;;;;;27.93;25.03;;;26.90;17.30;;;;;;6179980;28;20265;-66
2022/03/26 12:38:47;;;;;;;27.33;24.40;;;26.80;16.90;;;;;;6211823;28;20236;-66
2022/03/26 12:41:50;;;;;;;26.93;24.23;;;26.50;17.20;;;;;;6228685;28;20233;-65
2022/03/26 12:44:54;;;;;;;25.67;23.10;;;26.40;17.50;;;;;;6227093;28;20232;-65
2022/03/26 12:47:57;;;;;;;27.07;24.37;;;26.00;17.80;;;;;;6227634;28;20232;-65
2022/03/26 12:51:05;;;;;;;26.10;23.53;;;26.00;17.80;;;;;;6227158;28;20740;-66
2022/03/26 12:54:09;;;;;;;25.57;23.07;;;26.00;17.80;;;;;;6226854;28;20241;-66
2022/03/26 12:57:12;;;;;;;25.93;23.33;;;25.80;17.90;;;;;;6226974;28;20243;-66
2022/03/26 13:00:21;;;;;;;25.67;22.90;;;25.80;17.90;;;;;;6227332;28;20225;-63
2022/03/26 13:03:28;;;;;;;25.43;22.73;;;26.00;17.80;;;;;;6226682;28;20574;-63
2022/03/26 13:06:31;;;;;;;25.17;22.50;;;26.20;18.10;;;;;;6226520;28;20677;-62
2022/03/26 13:09:36;;;;;;;29.13;24.57;;;26.00;18.00;;;;;;6226190;28;20236;-62
2022/03/26 13:12:39;;;;;;;24.43;21.93;;;25.50;18.10;;;;;;6226232;28;20233;-62
2022/03/26 13:16:01;;;;;;;26.23;23.30;;;25.50;18.60;;;;;;6226329;28;20711;-63
2022/03/26 13:19:07;;;;;;;24.80;22.30;;;25.50;18.90;;;;;;6226860;28;20243;-63
2022/03/26 13:22:14;;;;;;;25.30;22.70;;;25.60;18.40;;;;;;6226301;28;20229;-63
2022/03/26 13:25:21;;;;;;;25.43;22.90;;;25.70;18.50;;;;;;6226611;28;20234;-62
2022/03/26 13:28:32;;;;;;;24.63;22.23;;;25.60;18.60;;;;;;6208574;28;20734;-62
2022/03/26 13:31:35;;;;;;;24.33;21.87;;;25.30;18.70;;;;;;6192977;28;20248;-62
2022/03/26 13:34:39;;;;;;;23.70;21.20;;;24.70;19.20;;;;;;6201831;28;20229;-63
2022/03/26 13:37:47;;;;;;;23.00;20.70;;;24.70;19.40;;;;;;6201668;28;20233;-63
2022/03/26 13:40:51;;;;;;;23.30;21.00;;;24.80;19.40;;;;;;6192643;28;20257;-62
2022/03/26 13:43:54;;;;;;;24.30;21.70;;;24.60;19.20;;;;;;6177789;28;20238;-62
2022/03/26 13:47:01;;;;;;;24.07;21.63;;;24.60;19.40;;;;;;6177228;28;20940;-62
2022/03/26 13:50:06;;;;;;;23.80;21.50;;;24.30;19.50;;;;;;6199454;28;20461;-62
2022/03/26 13:53:20;;;;;;;25.37;22.70;;;24.20;19.70;;;;;;6225748;28;20231;-61
2022/03/26 13:56:28;;;;;;;24.30;21.03;;;23.60;20.00;;;;;;6225690;28;20242;-63
2022/03/26 13:59:37;;;;;;;23.57;21.17;;;23.40;20.50;;;;;;6225329;28;20719;-61
2022/03/26 14:02:43;;;;;;;25.87;22.00;;;23.50;20.60;;;;;;6225457;28;20312;-62
2022/03/26 14:05:47;;;;;;;24.27;21.60;;;23.30;20.80;;;;;;6224412;28;20307;-62
2022/03/26 14:08:50;;;;;;;24.77;22.10;;;23.10;20.70;;;;;;6218353;28;20232;-62
2022/03/26 14:11:54;;;;;;;21.03;18.83;;;23.00;20.90;;;;;;6212314;28;20287;-63
2022/03/26 14:14:57;;;;;;;24.33;21.67;;;23.00;20.90;;;;;;6216662;28;20573;-64
2022/03/26 14:18:01;;;;;;;24.13;21.53;;;22.90;21.10;;;;;;6213489;28;20236;-63
2022/03/26 14:21:05;;;;;;;25.83;22.40;;;22.70;21.30;;;;;;6203951;28;20248;-65
2022/03/26 14:24:09;;;;;;;22.37;20.10;;;22.40;21.30;;;;;;6202900;28;20233;-63
2022/03/26 14:27:13;;;;;;;24.80;21.90;;;22.40;21.30;;;;;;6208621;28;20225;-63
2022/03/26 14:30:16;;;;;;;23.43;21.03;;;22.30;21.50;;;;;;6225287;28;20265;-64
2022/03/26 14:33:19;;;;;;;24.10;20.77;;;22.10;21.70;;;;;;6225096;28;20260;-62
2022/03/26 14:36:22;;;;;;;23.87;20.30;;;22.10;21.80;;;;;;6217190;28;20233;-63
2022/03/26 14:39:26;;;;;;;22.57;20.17;;;22.00;22.00;;;;;;6225770;28;20245;-63
2022/03/26 14:42:30;;;;;;;22.70;20.40;;;22.00;22.20;;;;;;6225334;28;20247;-62
2022/03/26 14:45:34;;;;;;;24.30;21.73;;;21.80;22.10;;;;;;6225335;28;20565;-61
2022/03/26 14:48:37;;;;;;;24.70;22.10;;;21.80;22.30;;;;;;6225210;28;20585;-63
2022/03/26 14:51:40;;;;;;;23.33;21.03;;;21.70;22.40;;;;;;6225539;28;20244;-62
2022/03/26 14:54:43;;;;;;;22.63;20.43;;;21.60;22.50;;;;;;6219578;28;20236;-62
2022/03/26 14:57:48;;;;;;;25.37;21.47;;;21.60;22.50;;;;;;6225112;28;20233;-62
2022/03/26 15:00:52;;;;;;;24.23;20.80;;;21.60;22.50;;;;;;6225172;28;20205;-62
2022/03/26 15:03:55;;;;;;;23.73;20.30;;;21.40;22.80;;;;;;6226273;28;20684;-63
2022/03/26 15:06:59;;;;;;;21.27;19.07;;;21.30;22.90;;;;;;6230458;28;20251;-63
2022/03/26 15:10:02;;;;;;;22.87;20.53;;;21.30;23.20;;;;;;6229893;28;20220;-64
2022/03/26 15:13:11;;;;;;;22.17;19.87;;;21.40;23.10;;;;;;6226021;28;20253;-64
2022/03/26 15:16:15;;;;;;;23.37;20.87;;;21.40;23.10;;;;;;6204918;28;20585;-63
2022/03/26 15:19:19;;;;;;;24.17;19.70;;;21.40;23.20;;;;;;6205139;28;20225;-64
2022/03/26 15:22:22;;;;;;;22.23;20.03;;;21.40;23.20;;;;;;6205146;28;20234;-62
2022/03/26 15:25:25;;;;;;;23.67;20.03;;;21.10;23.40;;;;;;6205027;28;20232;-63
2022/03/26 15:28:30;;;;;;;23.20;20.10;;;21.10;23.40;;;;;;6199706;28;20233;-63
2022/03/26 15:31:33;;;;;;;21.87;19.47;;;21.10;23.40;;;;;;6228775;28;20583;-64
2022/03/26 15:34:37;;;;;;;23.60;19.47;;;21.00;23.40;;;;;;6229691;28;20235;-63
2022/03/26 15:37:40;;;;;;;23.03;20.33;;;21.00;23.70;;;;;;6225548;28;20244;-67
2022/03/26 15:40:43;;;;;;;24.30;20.03;;;20.90;23.70;;;;;;6230249;28;20372;-66
2022/03/26 15:43:48;;;;;;;22.00;19.70;;;20.90;23.70;;;;;;6229251;28;20248;-67
2022/03/26 15:46:51;;;;;;;23.53;21.10;;;20.90;23.80;;;;;;6228643;28;20240;-67